createdAt,value
2023-01-23T00:00:11.662Z,-6.98
2023-01-23T00:05:11.683Z,-6.83
2023-01-23T00:10:11.693Z,-6.74
2023-01-23T00:15:11.707Z,-6.66
2023-01-23T00:20:11.722Z,-6.63
2023-01-23T00:25:11.710Z,-6.57
2023-01-23T00:30:11.687Z,-6.44
2023-01-23T00:35:11.690Z,-6.33
2023-01-23T00:40:11.745Z,-6.29
2023-01-23T00:45:11.710Z,-6.28
2023-01-23T00:50:11.690Z,-6.31
2023-01-23T00:55:11.681Z,-6.23
2023-01-23T01:00:11.745Z,-6.25
2023-01-23T01:05:11.713Z,-6.25
2023-01-23T01:10:11.700Z,-6.15
2023-01-23T01:15:11.726Z,-5.96
2023-01-23T01:20:11.732Z,-5.74
2023-01-23T01:25:11.693Z,-5.52
2023-01-23T01:30:11.716Z,-5.3
2023-01-23T01:35:11.694Z,-5.08
2023-01-23T01:40:11.697Z,-4.89
2023-01-23T01:45:11.710Z,-4.72
2023-01-23T01:50:12.403Z,-4.6
2023-01-23T01:55:11.731Z,-4.47
2023-01-23T02:00:11.724Z,-4.33
2023-01-23T02:05:11.719Z,-4.21
2023-01-23T02:10:11.698Z,-4.09
2023-01-23T02:15:11.939Z,-3.97
2023-01-23T02:20:11.836Z,-3.81
2023-01-23T02:25:11.751Z,-3.72
2023-01-23T02:30:11.710Z,-3.74
2023-01-23T02:35:11.753Z,-3.71
2023-01-23T02:40:11.713Z,-3.59
2023-01-23T02:45:11.770Z,-3.54
2023-01-23T02:50:11.714Z,-3.48
2023-01-23T02:55:11.863Z,-3.37
2023-01-23T03:00:11.786Z,-3.28
2023-01-23T03:05:11.739Z,-3.18
2023-01-23T03:10:11.737Z,-3.09
2023-01-23T03:15:11.717Z,-3.01
2023-01-23T03:20:11.714Z,-2.98
2023-01-23T03:25:11.713Z,-2.92
2023-01-23T03:30:11.874Z,-2.83
2023-01-23T03:35:11.707Z,-2.81
2023-01-23T03:40:11.763Z,-2.75
2023-01-23T03:45:11.793Z,-2.74
2023-01-23T03:50:11.748Z,-2.7
2023-01-23T03:55:11.693Z,-2.68
2023-01-23T04:00:11.727Z,-2.63
2023-01-23T04:05:11.799Z,-2.56
2023-01-23T04:10:13.198Z,-2.53
2023-01-23T04:15:11.709Z,-2.51
2023-01-23T04:20:11.706Z,-2.48
2023-01-23T04:25:11.766Z,-2.44
2023-01-23T04:30:11.747Z,-2.41
2023-01-23T04:35:11.729Z,-2.36
2023-01-23T04:40:11.735Z,-2.34
2023-01-23T04:45:11.759Z,-2.34
2023-01-23T04:50:11.703Z,-2.29
2023-01-23T04:55:11.715Z,-2.27
2023-01-23T05:00:11.798Z,-2.26
2023-01-23T05:05:11.714Z,-2.21
2023-01-23T05:10:11.722Z,-2.04
2023-01-23T05:15:11.748Z,-1.89
2023-01-23T05:20:11.716Z,-1.72
2023-01-23T05:25:11.703Z,-1.66
2023-01-23T05:30:11.736Z,-1.42
2023-01-23T05:35:11.712Z,-1.42
2023-01-23T05:40:11.734Z,-1.42
2023-01-23T05:45:11.697Z,-1.41
2023-01-23T05:50:11.722Z,-1.39
2023-01-23T05:55:11.706Z,-1.39
2023-01-23T06:00:11.696Z,-1.41
2023-01-23T06:05:11.720Z,-1.39
2023-01-23T06:10:11.743Z,-1.39
2023-01-23T06:15:11.701Z,-1.41
2023-01-23T06:20:11.691Z,-1.41
2023-01-23T06:25:11.697Z,-1.34
2023-01-23T06:30:11.695Z,-1.27
2023-01-23T06:40:11.692Z,-1.3
2023-01-23T06:45:11.781Z,-1.37
2023-01-23T06:50:11.685Z,-1.35
2023-01-23T06:55:13.172Z,-1.35
2023-01-23T07:00:11.703Z,-1.41
2023-01-23T07:05:11.702Z,-1.41
2023-01-23T07:10:11.701Z,-1.41
2023-01-23T07:15:11.682Z,-1.35
2023-01-23T07:20:11.707Z,-1.28
2023-01-23T07:25:11.700Z,-1.27
2023-01-23T07:30:11.689Z,-1.27
2023-01-23T07:35:11.678Z,-1.2
2023-01-23T07:40:11.713Z,-1.11
2023-01-23T07:45:11.712Z,-1.04
2023-01-23T07:50:11.718Z,-1.07
2023-01-23T07:55:11.692Z,-0.91
2023-01-23T08:00:11.784Z,-0.78
2023-01-23T08:05:11.779Z,-0.76
2023-01-23T08:10:11.729Z,-0.74
2023-01-23T08:15:11.745Z,-0.74
2023-01-23T08:20:11.773Z,-0.6
2023-01-23T08:25:11.679Z,-0.57
2023-01-23T08:30:11.713Z,-0.57
2023-01-23T08:35:11.771Z,-0.6
2023-01-23T08:40:11.695Z,-0.49
2023-01-23T08:45:11.681Z,-0.39
2023-01-23T08:50:11.692Z,-0.27
2023-01-23T08:55:11.676Z,-0.15
2023-01-23T09:00:11.700Z,-0.17
2023-01-23T09:05:11.789Z,0.01
2023-01-23T09:10:11.883Z,0.47
2023-01-23T09:15:11.680Z,0.5
2023-01-23T09:20:11.699Z,0.61
2023-01-23T09:25:11.673Z,0.69
2023-01-23T09:30:11.661Z,0.68
2023-01-23T09:35:11.673Z,0.52
2023-01-23T09:40:11.642Z,0.6
2023-01-23T09:45:11.683Z,0.63
2023-01-23T09:50:11.678Z,0.68
2023-01-23T09:55:11.758Z,0.78
2023-01-23T10:00:11.650Z,0.89
2023-01-23T10:05:11.709Z,0.93
2023-01-23T10:10:11.646Z,1.04
2023-01-23T10:15:11.680Z,1.4
2023-01-23T10:20:11.713Z,1.57
2023-01-23T10:25:11.616Z,1.83
2023-01-23T10:30:11.633Z,2.31
2023-01-23T10:35:11.655Z,2.41
2023-01-23T10:40:11.630Z,2.32
2023-01-23T10:45:11.641Z,2.32
2023-01-23T10:50:11.656Z,2.42
2023-01-23T10:55:11.641Z,2.5
2023-01-23T11:00:11.660Z,2.58
2023-01-23T11:05:11.670Z,2.53
2023-01-23T11:10:11.627Z,2.62
2023-01-23T11:15:11.648Z,2.54
2023-01-23T11:20:11.602Z,2.63
2023-01-23T11:25:11.619Z,2.79
2023-01-23T11:30:11.650Z,2.98
2023-01-23T11:35:11.668Z,2.91
2023-01-23T11:40:11.608Z,2.76
2023-01-23T11:45:11.723Z,2.68
2023-01-23T11:50:11.636Z,2.83
2023-01-23T11:55:11.640Z,3.01
2023-01-23T12:00:11.828Z,3.07
2023-01-23T12:05:11.623Z,3.1
2023-01-23T12:10:11.590Z,2.79
2023-01-23T12:15:11.649Z,2.77
2023-01-23T12:20:11.606Z,2.66
2023-01-23T12:25:11.577Z,2.5
2023-01-23T12:30:11.606Z,2.68
2023-01-23T12:35:11.571Z,2.9
2023-01-23T12:40:11.593Z,2.85
2023-01-23T12:55:11.577Z,2.51
2023-01-23T13:05:11.555Z,2.32
2023-01-23T13:10:11.602Z,2.16
2023-01-23T13:35:11.539Z,1.7
2023-01-23T13:45:11.552Z,1.64
2023-01-23T14:25:11.565Z,1.87
2023-01-23T14:30:11.540Z,1.78
2023-01-23T14:35:11.523Z,1.7
2023-01-23T14:40:12.455Z,1.64
2023-01-23T14:45:11.526Z,1.6
2023-01-23T14:50:11.589Z,1.53
2023-01-23T14:55:13.012Z,1.5
2023-01-23T15:00:11.577Z,1.49
2023-01-23T15:05:11.521Z,1.4
2023-01-23T15:10:11.525Z,1.4
2023-01-23T15:15:11.508Z,1.34
2023-01-23T15:20:11.487Z,1.31
2023-01-23T15:25:11.503Z,1.3
2023-01-23T15:30:11.479Z,1.31
2023-01-23T15:35:11.490Z,1.29
2023-01-23T15:40:11.510Z,1.25
2023-01-23T15:45:11.470Z,1.24
2023-01-23T15:50:11.491Z,1.17
2023-01-23T15:55:11.481Z,1.16
2023-01-23T16:00:11.514Z,1.15
2023-01-23T16:05:11.479Z,1.12
2023-01-23T16:10:11.498Z,1.1
2023-01-23T16:15:11.481Z,1.09
2023-01-23T16:20:11.467Z,1.09
2023-01-23T16:25:11.611Z,1.06
2023-01-23T16:30:11.485Z,1.06
2023-01-23T16:35:11.459Z,1.04
2023-01-23T16:40:11.489Z,1.03
2023-01-23T16:45:11.493Z,1.02
2023-01-23T16:50:11.474Z,1
2023-01-23T16:55:11.463Z,0.98
2023-01-23T17:00:11.483Z,0.98
2023-01-23T17:05:11.487Z,0.96
2023-01-23T17:10:11.465Z,0.96
2023-01-23T17:15:11.480Z,0.93
2023-01-23T17:20:11.457Z,0.94
2023-01-23T17:25:11.463Z,0.83
2023-01-23T17:30:11.494Z,0.87
2023-01-23T17:35:11.465Z,0.89
2023-01-23T17:40:11.433Z,0.93
2023-01-23T17:45:11.455Z,0.93
2023-01-23T17:50:11.487Z,0.95
2023-01-23T17:55:11.475Z,0.89
2023-01-23T18:00:11.535Z,0.94
2023-01-23T18:05:11.464Z,0.94
2023-01-23T18:10:11.447Z,0.94
2023-01-23T18:15:11.462Z,0.96
2023-01-23T18:20:11.476Z,0.97
2023-01-23T18:25:11.439Z,0.95
2023-01-23T18:30:11.459Z,0.93
2023-01-23T18:35:11.501Z,0.89
2023-01-23T18:40:11.425Z,0.89
2023-01-23T18:45:11.413Z,0.89
2023-01-23T18:50:11.431Z,0.79
2023-01-23T18:55:11.458Z,0.76
2023-01-23T19:00:11.478Z,0.82
2023-01-23T19:05:11.430Z,0.81
2023-01-23T19:10:11.443Z,0.76
2023-01-23T19:15:11.439Z,0.69
2023-01-23T19:20:11.465Z,0.6
2023-01-23T19:25:11.427Z,0.63
2023-01-23T19:30:11.430Z,0.65
2023-01-23T19:35:14.163Z,0.65
2023-01-23T19:40:11.402Z,0.65
2023-01-23T19:45:11.530Z,0.7
2023-01-23T19:50:11.407Z,0.66
2023-01-23T19:55:11.401Z,0.6
2023-01-23T20:00:11.589Z,0.56
2023-01-23T20:05:11.489Z,0.52
2023-01-23T20:10:11.392Z,0.47
2023-01-23T20:15:11.506Z,0.49
2023-01-23T20:20:11.962Z,0.5
2023-01-23T20:25:11.381Z,0.47
2023-01-23T20:30:11.456Z,0.47
2023-01-23T20:35:11.402Z,0.46
2023-01-23T20:40:11.393Z,0.45
2023-01-23T20:45:11.453Z,0.49
2023-01-23T20:55:11.386Z,0.6
2023-01-23T21:00:11.598Z,0.63
2023-01-23T21:05:11.426Z,0.63
2023-01-23T21:10:11.385Z,0.65
2023-01-23T21:15:11.373Z,0.63
2023-01-23T21:20:11.459Z,0.61
2023-01-23T21:25:11.376Z,0.56
2023-01-23T21:30:11.413Z,0.57
2023-01-23T21:35:11.405Z,0.54
2023-01-23T21:40:11.398Z,0.47
2023-01-23T21:45:11.380Z,0.43
2023-01-23T21:50:11.406Z,0.46
2023-01-23T21:55:11.388Z,0.42
2023-01-23T22:00:12.962Z,0.38
2023-01-23T22:05:11.586Z,0.38
2023-01-23T22:10:11.368Z,0.37
2023-01-23T22:15:11.410Z,0.35
2023-01-23T22:20:11.351Z,0.36
2023-01-23T22:25:11.356Z,0.37
2023-01-23T22:30:11.441Z,0.36
2023-01-23T22:35:11.366Z,0.36
2023-01-23T22:40:11.350Z,0.38
2023-01-23T22:45:11.411Z,0.37
2023-01-23T22:50:11.361Z,0.37
2023-01-23T22:55:11.341Z,0.37
2023-01-23T23:00:11.345Z,0.38
2023-01-23T23:05:11.383Z,0.4
2023-01-23T23:10:11.371Z,0.38
2023-01-23T23:15:11.394Z,0.38
2023-01-23T23:20:11.339Z,0.41
2023-01-23T23:25:11.334Z,0.45
2023-01-23T23:30:11.348Z,0.5
2023-01-23T23:35:11.352Z,0.5
2023-01-23T23:40:11.348Z,0.52
2023-01-23T23:45:11.370Z,0.54
2023-01-23T23:50:11.351Z,0.55
2023-01-23T23:55:11.323Z,0.58
